createdAt,value
2022-09-02T00:00:24.956Z,0.00
2022-09-02T00:01:24.959Z,0.00
2022-09-02T00:02:25.070Z,0.00
2022-09-02T00:03:25.212Z,0.00
2022-09-02T00:04:24.959Z,0.00
2022-09-02T00:05:24.937Z,0.00
2022-09-02T00:06:24.941Z,0.00
2022-09-02T00:07:24.933Z,0.00
2022-09-02T00:08:25.044Z,0.00
2022-09-02T00:09:24.916Z,0.00
2022-09-02T00:10:24.917Z,0.00
2022-09-02T00:11:24.902Z,0.00
2022-09-02T00:12:24.904Z,0.00
2022-09-02T00:13:24.903Z,0.00
2022-09-02T00:14:24.983Z,0.00
2022-09-02T00:15:24.875Z,0.00
2022-09-02T00:16:24.908Z,0.00
2022-09-02T00:17:24.879Z,0.00
2022-09-02T00:18:24.890Z,0.00
2022-09-02T00:19:24.868Z,0.00
2022-09-02T00:20:24.856Z,0.00
2022-09-02T00:21:24.847Z,0.00
2022-09-02T00:22:24.832Z,0.00
2022-09-02T00:23:27.342Z,0.00
2022-09-02T00:24:24.823Z,0.00
2022-09-02T00:25:24.849Z,0.00
2022-09-02T00:26:24.815Z,0.00
2022-09-02T00:27:24.802Z,0.00
2022-09-02T00:28:24.808Z,0.00
2022-09-02T00:29:24.787Z,0.00
2022-09-02T00:30:24.807Z,0.00
2022-09-02T00:31:24.907Z,0.00
2022-09-02T00:32:24.773Z,0.00
2022-09-02T00:33:24.778Z,0.00
2022-09-02T00:34:24.787Z,0.00
2022-09-02T00:35:24.756Z,0.00
2022-09-02T00:36:24.781Z,0.00
2022-09-02T00:37:24.747Z,0.00
2022-09-02T00:38:24.749Z,0.00
2022-09-02T00:39:24.727Z,0.00
2022-09-02T00:40:24.755Z,0.00
2022-09-02T00:41:24.837Z,0.00
2022-09-02T00:42:24.715Z,0.00
2022-09-02T00:43:24.703Z,0.00
2022-09-02T00:44:24.725Z,0.00
2022-09-02T00:45:24.752Z,0.00
2022-09-02T00:46:24.704Z,0.00
2022-09-02T00:47:24.705Z,0.00
2022-09-02T00:48:24.676Z,0.00
2022-09-02T00:49:24.671Z,0.00
2022-09-02T00:50:24.668Z,0.00
2022-09-02T00:51:24.692Z,0.00
2022-09-02T00:52:24.677Z,0.00
2022-09-02T00:53:24.661Z,0.00
2022-09-02T00:54:24.654Z,0.00
2022-09-02T00:55:24.644Z,0.00
2022-09-02T00:56:24.619Z,0.00
2022-09-02T00:57:24.612Z,0.00
2022-09-02T00:58:24.650Z,0.00
2022-09-02T00:59:24.617Z,0.00
2022-09-02T01:00:24.615Z,0.00
2022-09-02T01:01:24.726Z,0.00
2022-09-02T01:02:24.690Z,0.00
2022-09-02T01:03:24.621Z,0.00
2022-09-02T01:04:24.577Z,0.00
2022-09-02T01:05:24.573Z,0.00
2022-09-02T01:06:24.560Z,0.00
2022-09-02T01:07:24.554Z,0.00
2022-09-02T01:08:24.532Z,0.00
2022-09-02T01:09:25.587Z,0.00
2022-09-02T01:10:24.535Z,0.00
2022-09-02T01:11:24.540Z,0.00
2022-09-02T01:12:24.537Z,0.00
2022-09-02T01:13:24.516Z,0.00
2022-09-02T01:14:24.535Z,0.00
2022-09-02T01:15:24.529Z,0.00
2022-09-02T01:16:24.564Z,0.00
2022-09-02T01:17:24.521Z,0.00
2022-09-02T01:18:24.491Z,0.00
2022-09-02T01:19:24.498Z,0.00
2022-09-02T01:20:25.441Z,0.00
2022-09-02T01:21:24.477Z,0.00
2022-09-02T01:22:24.474Z,0.00
2022-09-02T01:23:24.492Z,0.00
2022-09-02T01:24:24.482Z,0.00
2022-09-02T01:25:24.475Z,0.00
2022-09-02T01:26:24.479Z,0.00
2022-09-02T01:27:24.449Z,0.00
2022-09-02T01:28:24.425Z,0.00
2022-09-02T01:29:24.440Z,0.00
2022-09-02T01:30:24.445Z,0.00
2022-09-02T01:31:24.456Z,0.00
2022-09-02T01:32:24.403Z,0.00
2022-09-02T01:33:25.224Z,0.00
2022-09-02T01:34:24.408Z,0.00
2022-09-02T01:35:24.415Z,0.00
2022-09-02T01:36:24.381Z,0.00
2022-09-02T01:37:24.380Z,0.00
2022-09-02T01:38:24.381Z,0.00
2022-09-02T01:39:24.368Z,0.00
2022-09-02T01:40:24.603Z,0.00
2022-09-02T01:41:24.367Z,0.00
2022-09-02T01:42:24.355Z,0.00
2022-09-02T01:43:24.348Z,0.00
2022-09-02T01:44:24.325Z,0.00
2022-09-02T01:45:24.353Z,0.00
2022-09-02T01:46:24.352Z,0.00
2022-09-02T01:47:24.324Z,0.00
2022-09-02T01:48:24.321Z,0.00
2022-09-02T01:49:24.295Z,0.00
2022-09-02T01:50:24.311Z,0.00
2022-09-02T01:51:24.306Z,0.00
2022-09-02T01:52:24.270Z,0.00
2022-09-02T01:53:24.289Z,0.00
2022-09-02T01:54:24.256Z,0.00
2022-09-02T01:55:24.259Z,0.00
2022-09-02T01:56:24.292Z,0.00
2022-09-02T01:57:24.255Z,0.00
2022-09-02T01:58:24.239Z,0.00
2022-09-02T01:59:24.225Z,0.00
2022-09-02T02:00:24.231Z,0.00
2022-09-02T02:01:24.286Z,0.00
2022-09-02T02:02:24.360Z,0.00
2022-09-02T02:03:24.226Z,0.00
2022-09-02T02:04:24.216Z,0.00
2022-09-02T02:05:24.210Z,0.00
2022-09-02T02:06:24.209Z,0.00
2022-09-02T02:07:24.211Z,0.00
2022-09-02T02:08:24.181Z,0.00
2022-09-02T02:09:24.192Z,0.00
2022-09-02T02:10:24.164Z,0.00
2022-09-02T02:11:24.171Z,0.00
2022-09-02T02:12:24.146Z,0.00
2022-09-02T02:13:24.177Z,0.00
2022-09-02T02:14:24.154Z,0.00
2022-09-02T02:16:09.544Z,0.00
2022-09-02T02:17:09.432Z,0.00
2022-09-02T02:18:09.425Z,0.00
2022-09-02T02:19:10.546Z,0.00
2022-09-02T02:20:10.551Z,0.00
2022-09-02T02:21:10.522Z,0.00
2022-09-02T02:22:10.536Z,0.00
2022-09-02T02:23:10.552Z,0.00
2022-09-02T02:24:10.549Z,0.00
2022-09-02T02:25:10.497Z,0.00
2022-09-02T02:26:10.515Z,0.00
2022-09-02T02:27:10.499Z,0.00
2022-09-02T02:28:10.480Z,0.00
2022-09-02T02:29:10.476Z,0.00
2022-09-02T02:30:10.504Z,0.00
2022-09-02T02:31:10.547Z,0.00
2022-09-02T02:32:10.465Z,0.00
2022-09-02T02:33:10.468Z,0.00
2022-09-02T02:34:10.456Z,0.00
2022-09-02T02:35:10.477Z,0.00
2022-09-02T02:36:10.449Z,0.00
2022-09-02T02:37:10.432Z,0.00
2022-09-02T02:38:10.418Z,0.00
2022-09-02T02:39:10.424Z,0.00
2022-09-02T02:40:10.426Z,0.00
2022-09-02T02:41:10.533Z,0.00
2022-09-02T02:42:10.397Z,0.00
2022-09-02T02:43:10.398Z,0.00
2022-09-02T02:44:10.394Z,0.00
2022-09-02T02:45:15.153Z,0.00
2022-09-02T02:46:11.506Z,0.00
2022-09-02T02:47:10.374Z,0.00
2022-09-02T02:48:10.364Z,0.00
2022-09-02T02:49:10.362Z,0.00
2022-09-02T02:50:10.351Z,0.00
2022-09-02T02:51:10.350Z,0.00
2022-09-02T02:52:10.435Z,0.00
2022-09-02T02:53:10.330Z,0.00
2022-09-02T02:54:10.304Z,0.00
2022-09-02T02:55:10.320Z,0.00
2022-09-02T02:56:10.306Z,0.00
2022-09-02T02:57:10.312Z,0.00
2022-09-02T02:58:10.291Z,0.00
2022-09-02T02:59:11.291Z,0.00
2022-09-02T03:00:10.275Z,0.00
2022-09-02T03:01:10.302Z,0.00
2022-09-02T03:02:10.529Z,0.00
2022-09-02T03:03:10.385Z,0.00
2022-09-02T03:04:10.227Z,0.00
2022-09-02T03:05:10.282Z,0.00
2022-09-02T03:06:10.231Z,0.00
2022-09-02T03:07:10.231Z,0.00
2022-09-02T03:08:10.263Z,0.00
2022-09-02T03:09:10.228Z,0.00
2022-09-02T03:10:10.214Z,0.00
2022-09-02T03:11:10.210Z,0.00
2022-09-02T03:12:10.201Z,0.00
2022-09-02T03:13:10.210Z,0.00
2022-09-02T03:14:10.215Z,0.00
2022-09-02T03:15:10.197Z,0.00
2022-09-02T03:16:10.199Z,0.00
2022-09-02T03:17:10.167Z,0.00
2022-09-02T03:18:10.171Z,0.00
2022-09-02T03:19:10.188Z,0.00
2022-09-02T03:20:10.154Z,0.00
2022-09-02T03:21:10.163Z,0.00
2022-09-02T03:22:10.136Z,0.00
2022-09-02T03:23:10.167Z,0.00
2022-09-02T03:24:10.143Z,0.00
2022-09-02T03:25:10.241Z,0.00
2022-09-02T03:26:10.117Z,0.00
2022-09-02T03:27:10.158Z,0.00
2022-09-02T03:28:10.099Z,0.00
2022-09-02T03:29:10.086Z,0.00
2022-09-02T03:30:10.198Z,0.00
2022-09-02T03:31:11.091Z,0.00
2022-09-02T03:32:10.117Z,0.00
2022-09-02T03:33:10.065Z,0.00
2022-09-02T03:34:10.075Z,0.00
2022-09-02T03:35:10.065Z,0.00
2022-09-02T03:36:10.070Z,0.00
2022-09-02T03:37:10.039Z,0.00
2022-09-02T03:38:10.043Z,0.00
2022-09-02T03:39:10.266Z,0.00
2022-09-02T03:40:10.047Z,0.00
2022-09-02T03:41:10.052Z,0.00
2022-09-02T03:42:17.484Z,0.00
2022-09-02T03:43:10.010Z,0.00
2022-09-02T03:44:10.006Z,0.00
2022-09-02T03:45:09.994Z,0.00
2022-09-02T03:46:10.030Z,0.00
2022-09-02T03:47:10.014Z,0.00
2022-09-02T03:48:09.966Z,0.00
2022-09-02T03:49:09.978Z,0.00
2022-09-02T03:50:11.060Z,0.00
2022-09-02T03:51:09.954Z,0.00
2022-09-02T03:52:09.998Z,0.00
2022-09-02T03:53:09.946Z,0.00
2022-09-02T03:54:10.943Z,0.00
2022-09-02T03:55:09.932Z,0.00
2022-09-02T03:56:09.934Z,0.00
2022-09-02T03:57:09.929Z,0.00
2022-09-02T03:58:10.024Z,0.00
2022-09-02T03:59:09.919Z,0.00
2022-09-02T04:00:09.893Z,0.00
2022-09-02T04:01:10.995Z,0.00
2022-09-02T04:02:10.034Z,0.00
2022-09-02T04:03:09.949Z,0.00
2022-09-02T04:04:09.886Z,0.00
2022-09-02T04:05:10.347Z,0.00
2022-09-02T04:06:10.863Z,0.00
2022-09-02T04:07:09.873Z,0.00
2022-09-02T04:08:41.926Z,4.00
2022-09-02T04:09:09.859Z,0.00
2022-09-02T04:10:09.836Z,0.00
2022-09-02T04:11:09.829Z,4.00
2022-09-02T04:12:09.834Z,0.00
2022-09-02T04:13:09.834Z,4.00
2022-09-02T04:14:09.838Z,4.00
2022-09-02T04:15:09.816Z,4.00
2022-09-02T04:16:10.707Z,4.00
2022-09-02T04:17:09.797Z,8.00
2022-09-02T04:18:09.805Z,4.00
2022-09-02T04:19:09.906Z,8.00
2022-09-02T04:20:09.798Z,8.00
2022-09-02T04:21:09.784Z,8.00
2022-09-02T04:22:09.772Z,12.00
2022-09-02T04:23:09.761Z,12.00
2022-09-02T04:24:09.767Z,16.00
2022-09-02T04:25:09.788Z,16.00
2022-09-02T04:26:09.759Z,20.00
2022-09-02T04:27:10.579Z,24.00
2022-09-02T04:28:09.747Z,28.00
2022-09-02T04:29:09.729Z,28.00
2022-09-02T04:30:09.732Z,36.00
2022-09-02T04:31:09.797Z,40.00
2022-09-02T04:32:09.726Z,48.00
2022-09-02T04:33:09.702Z,48.00
2022-09-02T04:34:09.708Z,56.00
2022-09-02T04:35:09.701Z,60.00
2022-09-02T04:36:09.719Z,68.00
2022-09-02T04:37:09.684Z,76.00
2022-09-02T04:38:09.676Z,80.00
2022-09-02T04:39:09.676Z,92.00
2022-09-02T04:40:09.713Z,100.00
2022-09-02T04:41:09.668Z,108.00
2022-09-02T04:42:09.650Z,116.00
2022-09-02T04:43:09.632Z,124.00
2022-09-02T04:44:09.640Z,136.00
2022-09-02T04:45:09.634Z,144.00
2022-09-02T04:46:09.663Z,156.00
2022-09-02T04:47:09.717Z,168.00
2022-09-02T04:48:09.618Z,180.00
2022-09-02T04:49:09.652Z,188.00
2022-09-02T04:50:09.594Z,200.00
2022-09-02T04:51:09.591Z,212.00
2022-09-02T04:52:09.603Z,228.00
2022-09-02T04:53:09.583Z,244.00
2022-09-02T04:54:09.576Z,256.00
2022-09-02T04:55:09.559Z,272.00
2022-09-02T04:56:09.568Z,288.00
2022-09-02T04:57:09.569Z,308.00
2022-09-02T04:58:09.589Z,324.00
2022-09-02T04:59:09.552Z,340.00
2022-09-02T05:00:09.546Z,360.00
2022-09-02T05:01:09.587Z,372.00
2022-09-02T05:02:09.573Z,384.00
2022-09-02T05:03:09.542Z,396.00
2022-09-02T05:04:09.588Z,404.00
2022-09-02T05:05:09.511Z,404.00
2022-09-02T05:06:09.498Z,404.00
2022-09-02T05:07:09.485Z,412.00
2022-09-02T05:08:09.502Z,408.00
2022-09-02T05:09:09.520Z,416.00
2022-09-02T05:10:09.497Z,420.00
2022-09-02T05:11:09.472Z,424.00
2022-09-02T05:12:09.475Z,424.00
2022-09-02T05:13:09.461Z,420.00
2022-09-02T05:14:09.490Z,424.00
2022-09-02T05:15:09.459Z,424.00
2022-09-02T05:16:09.506Z,424.00
2022-09-02T05:17:09.455Z,424.00
2022-09-02T05:18:09.434Z,432.00
2022-09-02T05:19:09.433Z,432.00
2022-09-02T05:20:09.450Z,440.00
2022-09-02T05:21:09.412Z,448.00
2022-09-02T05:22:09.405Z,460.00
2022-09-02T05:23:09.413Z,472.00
2022-09-02T05:24:09.414Z,488.00
2022-09-02T05:25:09.421Z,508.00
2022-09-02T05:26:09.380Z,520.00
2022-09-02T05:27:09.370Z,540.00
2022-09-02T05:28:09.363Z,552.00
2022-09-02T05:29:09.365Z,568.00
2022-09-02T05:30:09.364Z,584.00
2022-09-02T05:31:09.425Z,604.00
2022-09-02T05:32:09.340Z,620.00
2022-09-02T05:33:09.331Z,632.00
2022-09-02T05:34:09.319Z,644.00
2022-09-02T05:35:09.300Z,664.00
2022-09-02T05:36:09.329Z,676.00
2022-09-02T05:37:09.311Z,692.00
2022-09-02T05:38:10.043Z,712.00
2022-09-02T05:39:09.317Z,732.00
2022-09-02T05:40:09.331Z,752.00
2022-09-02T05:41:09.286Z,768.00
2022-09-02T05:42:09.312Z,792.00
2022-09-02T05:43:09.276Z,808.00
2022-09-02T05:44:09.269Z,832.00
2022-09-02T05:45:09.289Z,856.00
2022-09-02T05:46:09.309Z,876.00
2022-09-02T05:47:09.636Z,896.00
2022-09-02T05:48:09.243Z,912.00
2022-09-02T05:49:09.318Z,936.00
2022-09-02T05:50:09.240Z,956.00
2022-09-02T05:51:09.236Z,972.00
2022-09-02T05:52:09.209Z,984.00
2022-09-02T05:53:14.212Z,996.00
2022-09-02T05:54:11.211Z,1020.00
2022-09-02T05:55:09.198Z,1048.00
2022-09-02T05:56:09.199Z,1076.00
2022-09-02T05:57:09.210Z,1096.00
2022-09-02T05:58:09.206Z,1108.00
2022-09-02T05:59:09.177Z,1112.00
2022-09-02T06:00:09.267Z,1120.00
2022-09-02T06:01:10.120Z,1116.00
2022-09-02T06:02:09.195Z,1124.00
2022-09-02T06:03:09.202Z,1124.00
2022-09-02T06:04:09.271Z,1128.00
2022-09-02T06:05:09.153Z,1132.00
2022-09-02T06:06:09.144Z,1144.00
2022-09-02T06:07:09.133Z,1148.00
2022-09-02T06:08:09.159Z,1156.00
2022-09-02T06:09:09.150Z,1168.00
2022-09-02T06:10:09.116Z,1164.00
2022-09-02T06:11:09.113Z,1168.00
2022-09-02T06:12:09.167Z,1176.00
2022-09-02T06:13:09.077Z,1192.00
2022-09-02T06:14:09.105Z,1224.00
2022-09-02T06:15:09.070Z,1260.00
2022-09-02T06:16:09.221Z,1308.00
2022-09-02T06:17:09.107Z,1340.00
2022-09-02T06:18:09.052Z,1364.00
2022-09-02T06:19:09.065Z,1388.00
2022-09-02T06:20:09.043Z,1412.00
2022-09-02T06:21:09.032Z,1452.00
2022-09-02T06:22:09.047Z,1508.00
2022-09-02T06:23:09.022Z,1556.00
2022-09-02T06:24:09.032Z,1588.00
2022-09-02T06:25:09.003Z,1616.00
2022-09-02T06:26:09.037Z,1636.00
2022-09-02T06:27:08.994Z,1664.00
2022-09-02T06:28:08.998Z,1696.00
2022-09-02T06:29:08.978Z,1732.00
2022-09-02T06:30:09.013Z,1780.00
2022-09-02T06:31:09.032Z,1832.00
2022-09-02T06:32:08.983Z,1856.00
2022-09-02T06:33:08.978Z,1888.00
2022-09-02T06:34:08.949Z,1924.00
2022-09-02T06:35:08.987Z,1984.00
2022-09-02T06:36:08.942Z,2044.00
2022-09-02T06:37:08.947Z,2072.00
2022-09-02T06:38:08.930Z,2080.00
2022-09-02T06:39:08.913Z,2088.00
2022-09-02T06:40:08.954Z,2116.00
2022-09-02T06:41:09.023Z,2148.00
2022-09-02T06:42:08.889Z,2168.00
2022-09-02T06:43:08.896Z,2188.00
2022-09-02T06:44:08.908Z,2196.00
2022-09-02T06:45:08.883Z,2212.00
2022-09-02T06:46:09.117Z,2256.00
2022-09-02T06:47:08.885Z,2292.00
2022-09-02T06:48:08.870Z,2324.00
2022-09-02T06:49:08.902Z,2344.00
2022-09-02T06:50:08.860Z,2400.00
2022-09-02T06:51:08.857Z,2456.00
2022-09-02T06:52:08.944Z,2516.00
2022-09-02T06:53:08.835Z,2576.00
2022-09-02T06:54:08.849Z,2632.00
2022-09-02T06:55:08.816Z,2696.00
2022-09-02T06:56:08.819Z,2752.00
2022-09-02T06:57:08.931Z,2804.00
2022-09-02T06:58:08.809Z,2848.00
2022-09-02T06:59:08.804Z,2864.00
2022-09-02T07:00:08.807Z,2904.00
2022-09-02T07:01:08.859Z,2960.00
2022-09-02T07:02:09.037Z,3004.00
2022-09-02T07:03:08.803Z,3036.00
2022-09-02T07:04:08.781Z,3068.00
2022-09-02T07:05:08.769Z,3116.00
2022-09-02T07:06:08.780Z,3168.00
2022-09-02T07:07:09.753Z,3248.00
2022-09-02T07:08:08.861Z,3340.00
2022-09-02T07:09:08.767Z,3432.00
2022-09-02T07:10:08.738Z,3536.00
2022-09-02T07:11:08.735Z,3640.00
2022-09-02T07:12:08.739Z,3776.00
2022-09-02T07:13:08.726Z,3928.00
2022-09-02T07:14:08.834Z,4024.00
2022-09-02T07:15:08.701Z,4060.00
2022-09-02T07:16:09.753Z,4064.00
2022-09-02T07:17:08.743Z,4040.00
2022-09-02T07:18:08.694Z,4028.00
2022-09-02T07:19:14.046Z,4072.00
2022-09-02T07:20:09.681Z,4100.00
2022-09-02T07:21:08.675Z,4048.00
2022-09-02T07:22:08.682Z,4004.00
2022-09-02T07:23:08.657Z,4040.00
2022-09-02T07:24:08.661Z,4108.00
2022-09-02T07:25:08.675Z,4196.00
2022-09-02T07:26:08.638Z,4268.00
2022-09-02T07:27:08.642Z,4284.00
2022-09-02T07:28:08.633Z,4280.00
2022-09-02T07:29:08.623Z,4288.00
2022-09-02T07:30:08.662Z,4352.00
2022-09-02T07:31:08.650Z,4420.00
2022-09-02T07:32:08.600Z,4452.00
2022-09-02T07:33:08.611Z,4424.00
2022-09-02T07:34:08.593Z,4380.00
2022-09-02T07:35:08.574Z,4372.00
2022-09-02T07:36:12.202Z,4436.00
2022-09-02T07:37:10.832Z,4496.00
2022-09-02T07:38:09.565Z,4524.00
2022-09-02T07:39:08.553Z,4524.00
2022-09-02T07:40:08.616Z,4512.00
2022-09-02T07:41:08.568Z,4548.00
2022-09-02T07:42:08.535Z,4664.00
2022-09-02T07:43:08.526Z,4784.00
2022-09-02T07:44:08.538Z,4920.00
2022-09-02T07:45:08.513Z,5108.00
2022-09-02T07:46:08.559Z,5308.00
2022-09-02T07:47:08.531Z,5452.00
2022-09-02T07:48:08.501Z,5588.00
2022-09-02T07:49:09.341Z,5796.00
2022-09-02T07:50:19.102Z,6024.00
2022-09-02T07:51:10.486Z,6212.00
2022-09-02T07:52:08.506Z,6468.00
2022-09-02T07:53:08.465Z,6736.00
2022-09-02T07:54:08.466Z,6872.00
2022-09-02T07:55:12.609Z,6888.00
2022-09-02T07:56:09.472Z,6940.00
2022-09-02T07:57:08.476Z,6924.00
2022-09-02T07:58:08.516Z,6856.00
2022-09-02T07:59:08.442Z,6864.00
2022-09-02T08:00:08.422Z,7004.00
2022-09-02T08:01:08.633Z,7352.00
2022-09-02T08:02:08.472Z,7788.00
2022-09-02T08:04:08.407Z,8368.00
2022-09-02T08:05:08.395Z,8568.00
2022-09-02T08:06:08.390Z,8512.00
2022-09-02T08:07:08.382Z,8280.00
2022-09-02T08:08:08.393Z,8188.00
2022-09-02T08:09:08.511Z,8216.00
2022-09-02T08:10:08.357Z,8432.00
2022-09-02T08:11:08.364Z,8788.00
2022-09-02T08:12:08.375Z,8996.00
2022-09-02T08:13:08.347Z,9176.00
2022-09-02T08:14:08.451Z,9488.00
2022-09-02T08:15:08.334Z,9920.00
2022-09-02T08:16:08.422Z,10324.00
2022-09-02T08:17:08.386Z,10880.00
2022-09-02T08:18:08.559Z,11608.00
2022-09-02T08:19:08.321Z,12212.00
2022-09-02T08:20:12.270Z,14536.00
2022-09-02T08:21:09.308Z,18816.00
2022-09-02T08:22:08.291Z,14804.00
2022-09-02T08:23:12.479Z,14596.00
2022-09-02T08:24:09.282Z,14680.00
2022-09-02T08:25:08.409Z,14796.00
2022-09-02T08:26:08.286Z,15120.00
2022-09-02T08:27:08.279Z,15780.00
2022-09-02T08:28:08.263Z,17312.00
2022-09-02T08:29:08.241Z,18144.00
2022-09-02T08:30:08.251Z,19008.00
2022-09-02T08:31:08.278Z,21824.00
2022-09-02T08:32:09.270Z,33184.00
2022-09-02T08:33:08.229Z,27040.00
2022-09-02T08:34:08.218Z,29248.00
2022-09-02T08:35:08.220Z,34016.00
2022-09-02T08:36:08.232Z,89120.00
2022-09-02T08:37:08.203Z,30688.00
2022-09-02T08:38:08.179Z,46496.00
2022-09-02T08:39:08.193Z,51616.00
2022-09-02T08:40:08.229Z,49568.00
2022-09-02T08:41:08.196Z,33440.00
2022-09-02T08:42:08.289Z,56000.00
2022-09-02T08:43:08.161Z,69760.00
2022-09-02T08:44:08.168Z,64832.00
2022-09-02T08:45:08.140Z,67584.00
2022-09-02T08:46:08.235Z,72000.00
2022-09-02T08:47:08.151Z,71520.00
2022-09-02T08:48:08.136Z,72992.00
2022-09-02T08:49:08.132Z,73952.00
2022-09-02T08:50:08.133Z,72160.00
2022-09-02T08:51:08.117Z,65536.00
2022-09-02T08:52:08.128Z,60736.00
2022-09-02T08:53:08.231Z,59808.00
2022-09-02T08:54:08.088Z,42688.00
2022-09-02T08:55:08.094Z,58432.00
2022-09-02T08:56:08.092Z,28288.00
2022-09-02T08:57:08.098Z,28032.00
2022-09-02T08:58:08.122Z,29824.00
2022-09-02T08:59:08.083Z,47840.00
2022-09-02T09:00:08.073Z,37568.00
2022-09-02T09:01:08.111Z,71616.00
2022-09-02T09:02:08.077Z,72064.00
2022-09-02T09:03:08.062Z,72032.00
2022-09-02T09:04:08.084Z,66464.00
2022-09-02T09:05:08.037Z,60768.00
2022-09-02T09:06:08.024Z,62080.00
2022-09-02T09:07:08.047Z,66048.00
2022-09-02T09:08:10.870Z,68640.00
2022-09-02T09:09:09.053Z,71296.00
2022-09-02T09:10:08.014Z,72544.00
2022-09-02T09:11:08.012Z,71584.00
2022-09-02T09:12:08.081Z,68352.00
2022-09-02T09:13:08.034Z,72992.00
2022-09-02T09:14:08.088Z,73632.00
2022-09-02T09:15:08.221Z,69088.00
2022-09-02T09:16:08.143Z,73792.00
2022-09-02T09:17:08.053Z,75168.00
2022-09-02T09:18:07.973Z,64736.00
2022-09-02T09:19:08.862Z,61248.00
2022-09-02T09:20:08.979Z,68128.00
2022-09-02T09:21:07.982Z,70432.00
2022-09-02T09:22:07.949Z,68800.00
2022-09-02T09:23:07.950Z,64288.00
2022-09-02T09:24:07.938Z,63648.00
2022-09-02T09:25:07.941Z,71680.00
2022-09-02T09:26:07.935Z,79008.00
2022-09-02T09:27:07.932Z,78784.00
2022-09-02T09:28:07.914Z,71712.00
2022-09-02T09:29:07.907Z,74176.00
2022-09-02T09:30:10.456Z,70816.00
2022-09-02T09:31:07.905Z,65728.00
2022-09-02T09:32:07.882Z,70528.00
2022-09-02T09:33:07.901Z,70592.00
2022-09-02T09:34:07.892Z,67968.00
2022-09-02T09:35:07.926Z,69728.00
2022-09-02T09:36:07.893Z,69280.00
2022-09-02T09:37:07.865Z,70944.00
2022-09-02T09:38:07.875Z,79264.00
2022-09-02T09:39:07.860Z,82784.00
2022-09-02T09:40:07.918Z,77792.00
2022-09-02T09:41:07.852Z,73728.00
2022-09-02T09:42:07.836Z,77568.00
2022-09-02T09:43:14.771Z,77408.00
2022-09-02T09:44:07.816Z,73248.00
2022-09-02T09:45:07.838Z,66016.00
2022-09-02T09:46:07.906Z,10796.00
2022-09-02T09:47:07.824Z,8508.00
2022-09-02T09:48:07.803Z,7700.00
2022-09-02T09:49:07.822Z,7700.00
2022-09-02T09:50:07.814Z,7652.00
2022-09-02T09:51:07.803Z,7800.00
2022-09-02T09:52:07.786Z,8508.00
2022-09-02T09:53:07.784Z,9380.00
2022-09-02T09:54:07.781Z,10096.00
2022-09-02T09:55:07.779Z,12832.00
2022-09-02T09:56:07.773Z,69760.00
2022-09-02T09:57:07.763Z,10920.00
2022-09-02T09:58:07.753Z,78080.00
2022-09-02T09:59:07.739Z,75328.00
2022-09-02T10:00:08.312Z,76640.00
2022-09-02T10:01:07.823Z,12468.00
2022-09-02T10:02:07.819Z,13524.00
2022-09-02T10:03:07.747Z,12388.00
2022-09-02T10:04:20.756Z,14216.00
2022-09-02T10:05:08.729Z,17184.00
2022-09-02T10:06:07.737Z,14528.00
2022-09-02T10:07:07.710Z,22176.00
2022-09-02T10:08:15.025Z,16288.00
2022-09-02T10:09:35.715Z,13720.00
2022-09-02T10:10:07.692Z,16224.00
2022-09-02T10:11:07.833Z,26688.00
2022-09-02T10:12:07.706Z,13396.00
2022-09-02T10:13:07.705Z,12084.00
2022-09-02T10:14:07.710Z,12616.00
2022-09-02T10:15:07.678Z,17760.00
2022-09-02T10:16:07.893Z,15596.00
2022-09-02T10:17:07.696Z,20704.00
2022-09-02T10:18:07.649Z,59488.00
2022-09-02T10:19:07.633Z,54336.00
2022-09-02T10:20:07.632Z,26816.00
2022-09-02T10:21:15.077Z,21024.00
2022-09-02T10:22:09.661Z,39488.00
2022-09-02T10:23:07.620Z,12360.00
2022-09-02T10:24:07.642Z,13088.00
2022-09-02T10:25:07.607Z,15108.00
2022-09-02T10:26:07.603Z,60768.00
2022-09-02T10:27:07.594Z,68064.00
2022-09-02T10:28:07.598Z,58816.00
2022-09-02T10:29:07.589Z,50848.00
2022-09-02T10:30:07.589Z,38944.00
2022-09-02T10:31:07.649Z,30432.00
2022-09-02T10:32:07.567Z,16192.00
2022-09-02T10:33:07.578Z,15300.00
2022-09-02T10:34:07.557Z,18688.00
2022-09-02T10:35:07.524Z,8260.00
2022-09-02T10:36:07.533Z,7904.00
2022-09-02T10:37:07.557Z,7700.00
2022-09-02T10:38:07.525Z,7600.00
2022-09-02T10:39:07.510Z,7484.00
2022-09-02T10:40:07.610Z,7352.00
2022-09-02T10:41:07.517Z,7096.00
2022-09-02T10:42:08.756Z,7052.00
2022-09-02T10:43:07.478Z,6960.00
2022-09-02T10:44:07.492Z,6952.00
2022-09-02T10:45:07.478Z,7188.00
2022-09-02T10:46:07.495Z,7436.00
2022-09-02T10:47:07.483Z,7356.00
2022-09-02T10:48:07.673Z,7412.00
2022-09-02T10:49:07.475Z,7652.00
2022-09-02T10:50:07.447Z,8120.00
2022-09-02T10:51:07.471Z,8576.00
2022-09-02T10:52:07.509Z,9280.00
2022-09-02T10:53:09.556Z,10268.00
2022-09-02T10:54:07.432Z,11136.00
2022-09-02T10:55:07.441Z,11968.00
2022-09-02T10:56:07.410Z,12252.00
2022-09-02T10:57:07.429Z,13404.00
2022-09-02T10:58:07.396Z,10596.00
2022-09-02T10:59:07.444Z,10268.00
2022-09-02T11:00:07.387Z,9976.00
2022-09-02T11:01:07.440Z,10132.00
2022-09-02T11:02:07.384Z,10236.00
2022-09-02T11:03:07.394Z,10300.00
2022-09-02T11:04:07.396Z,10672.00
2022-09-02T11:05:07.357Z,10560.00
2022-09-02T11:06:07.361Z,9948.00
2022-09-02T11:07:07.347Z,9784.00
2022-09-02T11:08:07.376Z,9064.00
2022-09-02T11:09:07.340Z,9024.00
2022-09-02T11:10:07.357Z,9156.00
2022-09-02T11:11:07.333Z,9068.00
2022-09-02T11:12:07.329Z,8432.00
2022-09-02T11:13:07.408Z,7780.00
2022-09-02T11:14:07.319Z,7532.00
2022-09-02T11:15:07.345Z,7608.00
2022-09-02T11:16:07.367Z,7592.00
2022-09-02T11:17:13.402Z,7656.00
2022-09-02T11:18:08.289Z,7744.00
2022-09-02T11:19:07.373Z,7756.00
2022-09-02T11:20:07.305Z,8020.00
2022-09-02T11:21:07.380Z,8380.00
2022-09-02T11:22:07.283Z,8812.00
2022-09-02T11:23:07.256Z,9256.00
2022-09-02T11:24:07.267Z,9592.00
2022-09-02T11:25:07.247Z,9432.00
2022-09-02T11:26:07.295Z,9348.00
2022-09-02T11:27:15.741Z,9344.00
2022-09-02T11:28:08.235Z,8916.00
2022-09-02T11:29:07.222Z,8336.00
2022-09-02T11:30:07.232Z,7972.00
2022-09-02T11:31:07.203Z,8088.00
2022-09-02T11:32:07.311Z,8232.00
2022-09-02T11:33:07.199Z,8520.00
2022-09-02T11:34:07.187Z,8692.00
2022-09-02T11:35:07.187Z,8816.00
2022-09-02T11:36:07.176Z,9068.00
2022-09-02T11:37:07.188Z,9296.00
2022-09-02T11:38:07.188Z,9668.00
2022-09-02T11:39:07.146Z,10004.00
2022-09-02T11:40:30.279Z,9996.00
2022-09-02T11:42:09.201Z,9168.00
2022-09-02T11:43:07.175Z,8944.00
2022-09-02T11:44:07.112Z,8924.00
2022-09-02T11:45:07.155Z,9128.00
2022-09-02T11:46:07.185Z,9356.00
2022-09-02T11:47:07.115Z,9612.00
2022-09-02T11:48:07.216Z,9796.00
2022-09-02T11:49:08.516Z,10016.00
2022-09-02T11:50:07.088Z,10104.00
2022-09-02T11:51:07.071Z,9916.00
2022-09-02T11:52:07.077Z,9464.00
2022-09-02T11:53:07.102Z,9440.00
2022-09-02T11:54:07.099Z,9076.00
2022-09-02T11:55:07.071Z,8932.00
2022-09-02T11:56:07.064Z,8992.00
2022-09-02T11:57:07.058Z,9080.00
2022-09-02T11:58:07.029Z,9280.00
2022-09-02T11:59:07.160Z,9536.00
2022-09-02T12:00:07.019Z,9500.00
2022-09-02T12:01:07.043Z,9552.00
2022-09-02T12:02:08.157Z,9608.00
2022-09-02T12:03:28.354Z,9736.00
2022-09-02T12:04:56.125Z,10776.00
2022-09-02T12:05:09.484Z,11328.00
2022-09-02T12:06:07.092Z,9860.00
2022-09-02T12:07:09.559Z,8988.00
2022-09-02T12:08:08.062Z,8644.00
2022-09-02T12:09:07.156Z,8120.00
2022-09-02T12:10:07.027Z,7980.00
2022-09-02T12:11:06.963Z,7892.00
2022-09-02T12:12:06.965Z,7916.00
2022-09-02T12:13:08.365Z,8212.00
2022-09-02T12:14:08.216Z,8644.00
2022-09-02T12:15:07.080Z,9008.00
2022-09-02T12:16:07.124Z,9204.00
2022-09-02T12:17:06.989Z,9336.00
2022-09-02T12:18:07.071Z,9720.00
2022-09-02T12:19:07.007Z,8788.00
2022-09-02T12:20:08.070Z,8868.00
2022-09-02T12:21:06.998Z,8904.00
2022-09-02T12:22:07.078Z,8660.00
2022-09-02T12:23:07.792Z,8352.00
2022-09-02T12:24:08.146Z,8152.00
2022-09-02T12:25:07.126Z,8820.00
2022-09-02T12:26:07.716Z,9900.00
2022-09-02T12:27:07.776Z,10444.00
2022-09-02T12:28:07.512Z,9304.00
2022-09-02T12:29:07.152Z,10496.00
2022-09-02T12:30:07.096Z,10884.00
2022-09-02T12:31:06.960Z,10812.00